Jepson Prairie Reserve, California Weather observations

Data are for 10 minute period ending at time listed.
 Day   Time   Solar   Ave.   Ave.  Ave.  Vector  Max.   Baro.   Total    
  of    of     Rad.   Air    Rel.  Wind   Wind   Wind  Press.  Precip.   
Year   Day            Temp.  Hum.  Speed  Dir.   Gust                    
2015   (PST)  Kw/m2    F      %     mph   deg.    mph    mb.     in.     
-------------------------------------------------------------------------
 210    2:10   0.00   76.0    56   14.7   207    17.7   1007.5    0.00 
 210    2:20   0.00   76.2    52   15.5   209    19.3   1007.5    0.00 
 210    2:30   0.00   74.8    56   14.2   209    17.6   1007.5    0.00 
 210    2:40   0.00   75.5    61   13.0   204    15.7   1007.5    0.00 
 210    2:50   0.00   75.8    62   12.7   208    17.1   1007.5    0.00 
 210    3:00   0.00   73.9    56   14.3   214    17.9   1007.5    0.00 
 210    3:10   0.00   71.1    56   12.7   222    16.4   1007.8    0.00 
 210    3:20   0.00   69.9    60   11.9   224    14.2   1007.8    0.00 
 210    3:30   0.00   70.1    62   11.9   230    14.0   1007.8    0.00 
 210    3:40   0.00   71.3    65   10.1   233    14.2   1008.1    0.00 
 210    3:50   0.00   69.7    64    8.7   233    10.9   1008.1    0.00 
 210    4:00   0.00   69.3    64   10.5   210    13.4   1008.1    0.00 
 210    4:10   0.00   67.7    60   10.4   214    14.8   1008.1    0.00 
 210    4:20   0.00   67.0    59   10.1   221    12.4   1008.5    0.00 
 210    4:30   0.00   66.4    60    9.1   221    12.1   1008.5    0.00 
 210    4:40   0.00   65.9    61   10.7   219    12.9   1008.5    0.00 
 210    4:50   0.00   66.3    62   10.6   218    12.7   1008.5    0.00 
 210    5:00   0.00   69.4    64    9.8   217    12.2   1008.5    0.00 
 210    5:10   0.00   67.9    65   10.4   215    12.0   1008.8    0.00 
 210    5:20   0.01   66.7    65    7.4   232     9.5   1008.8    0.00 
 210    5:30   0.02   67.2    66   10.0   228    12.4   1008.8    0.00 
 210    5:40   0.05   66.8    66   10.5   217    12.0   1008.8    0.00 
 210    5:50   0.07   67.2    64   10.6   219    12.6   1008.8    0.00 
 210    6:00   0.10   68.1    62    9.8   221    12.5   1009.1    0.00 
 210    6:10   0.12   69.5    59   12.1   214    14.2   1009.1    0.00 
 210    6:20   0.15   71.6    58   10.6   212    13.2   1009.1    0.00 
 210    6:30   0.19   76.6    54   11.2   213    15.5   1009.1    0.00 
 210    6:40   0.22   80.9    50   13.5   213    16.4   1009.5    0.00 
 210    6:50   0.25   78.9    46   13.7   214    18.5   1009.5    0.00 
 210    7:00   0.28   79.5    43   14.8   222    19.3   1009.5    0.00 
 210    7:10   0.32   80.8    40   14.9   219    19.5   1009.5    0.00 
 210    7:20   0.35   81.9    40   13.3   213    15.9   1009.5    0.00 
 210    7:30   0.38   82.8    40   13.2   214    16.3   1009.5    0.00 
 210    7:40   0.41   84.1    39   12.3   215    15.1   1009.5    0.00 
 210    7:50   0.45   84.5    38   12.0   213    15.3   1009.5    0.00 
 210    8:00   0.48   85.6    39   11.2   214    13.4   1009.5    0.00 
 210    8:10   0.51   85.8    38   11.5   213    14.5   1009.5    0.00 
 210    8:20   0.54   86.9    37   10.9   216    13.4   1009.5    0.00 
 210    8:30   0.57   87.5    37   11.1   211    14.8   1009.5    0.00 
 210    8:40   0.60   88.4    36   10.2   212    13.4   1009.5    0.00 
 210    8:50   0.62   90.3    34    9.9   217    14.5   1009.5    0.00 
 210    9:00   0.65   91.6    31    8.8   231    13.7   1009.5    0.00 
 210    9:10   0.67   91.9    28    7.3   245    16.0   1009.8    0.00 
 210    9:20   0.70   92.9    27    6.1   274    10.7   1009.8    0.00 
 210    9:30   0.73   93.6    26    5.6   251     9.6   1009.8    0.00 
 210    9:40   0.75   94.2    26    5.6   280    11.0   1009.8    0.00 
 210    9:50   0.77   94.9    25    5.8   268    11.9   1009.8    0.00 
 210   10:00   0.80   96.3    25    4.4   260     9.7   1010.2    0.00 
 210   10:10   0.81   97.7    24    5.8   262     9.8   1010.2    0.00 
 210   10:20   0.83   99.6    24    4.8   278     9.1   1010.2    0.00 
 210   10:30   0.85   98.1    23    5.0   258     9.0   1010.2    0.00 
 210   10:40   0.86   98.0    23    6.1   275    10.1   1010.2    0.00 
 210   10:50   0.88   99.2    22    6.2   274    10.6   1010.2    0.00 
 210   11:00   0.89  100.3    22    6.9   314    12.4   1010.2    0.00 
 210   11:10   0.90  100.6    21    8.0   290    15.1   1009.8    0.00 
 210   11:20   0.91  100.7    20    6.6   290    12.2   1009.8    0.00 
 210   11:30   0.91  101.3    21    5.4   294    10.0   1009.8    0.00 
 210   11:40   0.92  102.3    21    4.3   318     9.2   1009.8    0.00 
 210   11:50   0.93  102.0    21    5.3   348    12.0   1009.8    0.00 
 210   12:00   0.94  102.7    19    5.3   319    10.8   1009.8    0.00 
 210   12:10   0.93  104.1    19    3.3   347     8.5   1009.5    0.00 
 210   12:20   0.94  103.8    19    4.6   352    11.2   1009.5    0.00 
 210   12:30   0.93  104.5    19    3.9    12     9.5   1009.5    0.00 
 210   12:40   0.93  105.7    18    2.6    20     7.7   1009.5    0.00 
 210   12:50   0.92  105.8    19    4.8    16     9.1   1009.5    0.00 
 210   13:00   0.91  106.7    18    2.6   235    10.7   1009.5    0.00 
 210   13:10   0.91  107.0    19    4.1    10    11.6   1009.5    0.00 
 210   13:20   0.91  108.9    17    6.1   275     9.9   1009.1    0.00 
 210   13:30   0.89  106.8    16    4.6   309     8.9   1009.1    0.00 
 210   13:40   0.88  107.1    16    3.5   334     9.7   1009.1    0.00 
 210   13:50   0.87  107.9    16    4.7   261    11.2   1009.1    0.00 
 210   14:00   0.86  110.2    17    8.1   231    12.3   1009.1    0.00 
 210   14:10   0.84  110.4    17    5.2   194    11.2   1008.8    0.00 
 210   14:20   0.82  111.8    16    6.9   197    11.2   1008.8    0.00 
 210   14:30   0.80  111.4    17    5.2   213    11.5   1008.8    0.00 
 210   14:40   0.78  112.5    17    6.0   206    11.5   1008.8    0.00 
 210   14:50   0.76  110.9    16    6.6   235    12.0   1008.5    0.00 
 210   15:00   0.73  109.4    15    6.1   263     9.6   1008.5    0.00 
 210   15:10   0.71  109.5    15    6.8   247    12.8   1008.1    0.00 
 210   15:20   0.68  109.5    15    5.7   243    13.1   1008.1    0.00 
 210   15:30   0.65  109.5    14    9.9   213    14.6   1007.8    0.00 
 210   15:40   0.62  109.9    14    9.6   219    17.6   1007.8    0.00 
 210   15:50   0.59  108.8    15   10.9   203    15.6   1007.8    0.00 
 210   16:00   0.56  109.2    15   11.8   214    16.8   1007.8    0.00 
 210   16:10   0.53  108.5    17   13.9   232    17.7   1007.8    0.00 
 210   16:20   0.51  107.8    17   15.7   231    19.3   1007.8    0.00 
 210   16:30   0.47  107.4    17   15.6   227    19.6   1007.8    0.00 
 210   16:40   0.45  106.2    17   16.5   225    20.1   1007.8    0.00 
 210   16:50   0.42  105.2    19   17.9   227    20.9   1007.8    0.00 
 210   17:00   0.38  103.9    20   16.6   227    20.0   1008.1    0.00 
 210   17:10   0.35  103.6    21   16.9   227    21.0   1007.8    0.00 
 210   17:20   0.30  101.9    22   18.0   226    22.3   1007.8    0.00 
 210   17:30   0.28  100.6    23   17.7   226    22.6   1007.8    0.00 
 210   17:40   0.25   98.8    24   17.5   227    21.7   1007.8    0.00 
 210   17:50   0.22   97.6    25   17.1   227    22.7   1007.8    0.00 
 210   18:00   0.19   95.7    27   19.2   229    23.4   1007.5    0.00 
 210   18:10   0.16   94.8    28   18.4   222    23.3   1007.5    0.00 
 210   18:20   0.13   92.7    30   19.1   216    24.8   1007.8    0.00 
 210   18:30   0.10   91.3    31   17.7   216    23.2   1007.8    0.00 
 210   18:40   0.07   90.3    33   17.0   215    21.4   1007.5    0.00 
 210   18:50   0.06   88.1    35   17.9   211    22.3   1007.5    0.00 
 210   19:00   0.03   86.8    36   17.4   209    21.7   1007.5    0.00 
 210   19:10   0.02   85.6    38   17.2   214    20.8   1007.5    0.00 
 210   19:20   0.01   83.9    40   14.5   206    18.3   1007.5    0.00 
 210   19:30   0.00   82.2    44   16.8   194    22.4   1007.8    0.00 
 210   19:40   0.00   81.1    48   20.6   203    24.0   1007.5    0.00 
 210   19:50   0.00   81.0    51   20.4   204    26.2   1007.8    0.00 
 210   20:00   0.00   82.2    51   19.7   204    24.8   1007.8    0.00 
 210   20:10   0.00   81.3    49   18.8   202    22.6   1008.1    0.00 
 210   20:20   0.00   79.6    50   18.8   201    22.7   1008.5    0.00 
 210   20:30   0.00   79.0    54   17.8   202    22.4   1008.5    0.00 
 210   20:40   0.00   78.2    54   18.7   206    23.6   1008.8    0.00 
 210   20:50   0.00   74.4    60   19.0   201    23.5   1008.8    0.00 
 210   21:00   0.00   73.0    63   19.9   202    23.7   1008.8    0.00 
 210   21:10   0.00   71.9    64   20.3   206    24.5   1008.8    0.00 
 210   21:20   0.00   70.9    64   19.4   207    23.1   1009.1    0.00 
 210   21:30   0.00   69.8    67   19.2   201    23.5   1009.1    0.00 
 210   21:40   0.00   70.2    68   17.7   204    23.2   1009.1    0.00 
 210   21:50   0.00   71.0    65   19.1   206    24.4   1009.5    0.00 
 210   22:00   0.00   71.1    65   19.9   206    24.1   1009.5    0.00 
 210   22:10   0.00   70.4    67   19.8   207    24.5   1009.5    0.00 
 210   22:20   0.00   69.7    66   21.5   205    26.2   1009.5    0.00 
 210   22:30   0.00   68.6    67   21.2   205    25.3   1009.5    0.00 
 210   22:40   0.00   68.0    68   21.7   208    27.2   1009.5    0.00 
 210   22:50   0.00   67.6    70   22.0   210    27.5   1009.5    0.00 
 210   23:00   0.00   67.3    72   21.3   209    27.0   1009.5    0.00 
 210   23:10   0.00   67.1    70   20.9   209    27.7   1009.8    0.00 
 210   23:20   0.00   66.9    71   20.8   210    24.9   1009.8    0.00 
 210   23:30   0.00   66.7    70   20.7   209    26.3   1009.8    0.00 
 210   23:40   0.00   66.3    71   19.8   209    25.9   1010.2    0.00 
 210   23:50   0.00   66.3    71   21.8   211    27.0   1009.8    0.00 
 211    0:00   0.00   66.0    72   21.0   211    25.2   1009.8    0.00 
 211    0:10   0.00   65.8    73   19.1   210    24.5   1010.2    0.00 
 211    0:20   0.00   66.1    70   19.3   212    24.5   1010.2    0.00 
 211    0:30   0.00   65.8    72   19.9   210    23.1   1010.2    0.00 
 211    0:40   0.00   65.6    72   21.3   214    25.9   1010.2    0.00 
 211    0:50   0.00   65.5    73   21.4   213    26.5   1010.2    0.00 
 211    1:00   0.00   65.6    73   20.9   213    26.1   1009.8    0.00 
 211    1:10   0.00   65.7    72   19.3   213    26.3   1010.2    0.00 
 211    1:20   0.00   65.9    71   20.6   217    25.3   1010.2    0.00 
 211    1:30   0.00   65.6    72   22.1   220    26.7   1009.8    0.00 
 211    1:40   0.00   65.7    72   22.0   218    28.1   1009.8    0.00 
 211    1:50   0.00   65.4    72   21.7   217    27.8   1009.8    0.00 
 211    2:00   0.00   65.1    74   22.0   215    27.0   1009.8    0.00 

Return to Jepson Prairie Reserve graphs page.


Western Regional Climate Center,wrcc@dri.edu